sensor_id;sensor_type;location;lat;lon;timestamp;pressure;altitude;pressure_sealevel;temperature;humidity
11448;BME280;43755;49.736;8.734;2023-12-20T00:00:31;97840.94;;;4.81;100.00
11448;BME280;43755;49.736;8.734;2023-12-20T00:02:33;97855.19;;;4.70;100.00
11448;BME280;43755;49.736;8.734;2023-12-20T00:04:35;97854.22;;;4.74;100.00
11448;BME280;43755;49.736;8.734;2023-12-20T00:06:37;97844.44;;;4.82;100.00
11448;BME280;43755;49.736;8.734;2023-12-20T00:08:38;97833.16;;;4.78;100.00
11448;BME280;43755;49.736;8.734;2023-12-20T00:10:39;97835.84;;;4.75;100.00
11448;BME280;43755;49.736;8.734;2023-12-20T00:12:41;97841.06;;;4.77;100.00
11448;BME280;43755;49.736;8.734;2023-12-20T00:14:42;97828.72;;;4.82;100.00
11448;BME280;43755;49.736;8.734;2023-12-20T00:16:44;97821.00;;;4.74;100.00
11448;BME280;43755;49.736;8.734;2023-12-20T00:18:45;97832.34;;;4.76;100.00
11448;BME280;43755;49.736;8.734;2023-12-20T00:20:46;97830.72;;;4.71;100.00
11448;BME280;43755;49.736;8.734;2023-12-20T00:22:49;97825.22;;;4.81;100.00
11448;BME280;43755;49.736;8.734;2023-12-20T00:24:50;97819.41;;;4.69;100.00
11448;BME280;43755;49.736;8.734;2023-12-20T00:26:52;97827.16;;;4.72;100.00
11448;BME280;43755;49.736;8.734;2023-12-20T00:28:52;97819.25;;;4.75;100.00
11448;BME280;43755;49.736;8.734;2023-12-20T00:30:54;97820.13;;;4.75;100.00
11448;BME280;43755;49.736;8.734;2023-12-20T00:32:55;97819.97;;;4.83;100.00
11448;BME280;43755;49.736;8.734;2023-12-20T00:34:56;97825.25;;;4.80;100.00
11448;BME280;43755;49.736;8.734;2023-12-20T00:36:58;97829.03;;;4.67;100.00
11448;BME280;43755;49.736;8.734;2023-12-20T00:39:01;97818.53;;;4.68;100.00
11448;BME280;43755;49.736;8.734;2023-12-20T00:41:03;97809.63;;;4.77;100.00
11448;BME280;43755;49.736;8.734;2023-12-20T00:43:04;97815.94;;;4.67;100.00
11448;BME280;43755;49.736;8.734;2023-12-20T00:45:05;97821.16;;;4.68;100.00
11448;BME280;43755;49.736;8.734;2023-12-20T00:47:07;97799.31;;;4.68;100.00
11448;BME280;43755;49.736;8.734;2023-12-20T00:49:08;97801.91;;;4.69;100.00
11448;BME280;43755;49.736;8.734;2023-12-20T00:51:09;97807.19;;;4.68;100.00
11448;BME280;43755;49.736;8.734;2023-12-20T00:53:11;97813.25;;;4.70;100.00
11448;BME280;43755;49.736;8.734;2023-12-20T00:55:14;97800.22;;;4.67;100.00
11448;BME280;43755;49.736;8.734;2023-12-20T00:57:15;97799.41;;;4.65;100.00
11448;BME280;43755;49.736;8.734;2023-12-20T00:59:16;97806.34;;;4.66;100.00
11448;BME280;43755;49.736;8.734;2023-12-20T01:01:18;97809.28;;;4.53;100.00
11448;BME280;43755;49.736;8.734;2023-12-20T01:03:20;97799.72;;;4.51;100.00
11448;BME280;43755;49.736;8.734;2023-12-20T01:05:21;97809.28;;;4.53;100.00
11448;BME280;43755;49.736;8.734;2023-12-20T01:07:23;97810.06;;;4.56;100.00
11448;BME280;43755;49.736;8.734;2023-12-20T01:09:24;97809.41;;;4.47;100.00
11448;BME280;43755;49.736;8.734;2023-12-20T01:11:28;97803.94;;;4.57;100.00
11448;BME280;43755;49.736;8.734;2023-12-20T01:13:29;97815.47;;;4.48;100.00
11448;BME280;43755;49.736;8.734;2023-12-20T01:15:31;97810.91;;;4.58;100.00
11448;BME280;43755;49.736;8.734;2023-12-20T01:17:32;97803.88;;;4.60;100.00
11448;BME280;43755;49.736;8.734;2023-12-20T01:19:34;97813.41;;;4.64;100.00
11448;BME280;43755;49.736;8.734;2023-12-20T01:21:35;97811.72;;;4.60;100.00
11448;BME280;43755;49.736;8.734;2023-12-20T01:23:36;97804.91;;;4.52;100.00
11448;BME280;43755;49.736;8.734;2023-12-20T01:25:38;97797.69;;;4.64;100.00
11448;BME280;43755;49.736;8.734;2023-12-20T01:27:41;97787.31;;;4.59;100.00
11448;BME280;43755;49.736;8.734;2023-12-20T01:29:43;97796.97;;;4.56;100.00
11448;BME280;43755;49.736;8.734;2023-12-20T01:31:44;97795.06;;;4.64;100.00
11448;BME280;43755;49.736;8.734;2023-12-20T01:33:45;97805.66;;;4.59;100.00
11448;BME280;43755;49.736;8.734;2023-12-20T01:35:47;97792.56;;;4.58;100.00
11448;BME280;43755;49.736;8.734;2023-12-20T01:37:48;97790.69;;;4.64;100.00
11448;BME280;43755;49.736;8.734;2023-12-20T01:39:48;97793.50;;;4.55;100.00
11448;BME280;43755;49.736;8.734;2023-12-20T01:41:50;97800.69;;;4.45;100.00
11448;BME280;43755;49.736;8.734;2023-12-20T01:43:53;97812.97;;;4.42;100.00
11448;BME280;43755;49.736;8.734;2023-12-20T01:45:56;97820.91;;;4.40;100.00
11448;BME280;43755;49.736;8.734;2023-12-20T01:47:58;97816.41;;;4.45;100.00
11448;BME280;43755;49.736;8.734;2023-12-20T01:49:59;97815.66;;;4.40;100.00
11448;BME280;43755;49.736;8.734;2023-12-20T01:52:04;97808.59;;;4.42;100.00
11448;BME280;43755;49.736;8.734;2023-12-20T01:54:05;97806.53;;;4.58;100.00
11448;BME280;43755;49.736;8.734;2023-12-20T01:56:07;97809.34;;;4.49;100.00
11448;BME280;43755;49.736;8.734;2023-12-20T01:58:10;97806.69;;;4.50;100.00
11448;BME280;43755;49.736;8.734;2023-12-20T02:00:13;97804.09;;;4.49;100.00
11448;BME280;43755;49.736;8.734;2023-12-20T02:02:18;97807.53;;;4.52;100.00
11448;BME280;43755;49.736;8.734;2023-12-20T02:04:19;97805.69;;;4.56;100.00
11448;BME280;43755;49.736;8.734;2023-12-20T02:06:21;97808.56;;;4.45;100.00
11448;BME280;43755;49.736;8.734;2023-12-20T02:08:22;97808.44;;;4.50;100.00
11448;BME280;43755;49.736;8.734;2023-12-20T02:10:24;97814.44;;;4.57;100.00
11448;BME280;43755;49.736;8.734;2023-12-20T02:12:25;97801.31;;;4.57;100.00
11448;BME280;43755;49.736;8.734;2023-12-20T02:14:27;97810.22;;;4.49;100.00
11448;BME280;43755;49.736;8.734;2023-12-20T02:16:29;97818.69;;;4.61;100.00
11448;BME280;43755;49.736;8.734;2023-12-20T02:18:31;97819.75;;;4.53;100.00
11448;BME280;43755;49.736;8.734;2023-12-20T02:20:32;97826.47;;;4.65;100.00
11448;BME280;43755;49.736;8.734;2023-12-20T02:22:35;97816.19;;;4.56;100.00
11448;BME280;43755;49.736;8.734;2023-12-20T02:24:37;97811.03;;;4.53;100.00
11448;BME280;43755;49.736;8.734;2023-12-20T02:26:38;97804.72;;;4.60;100.00
11448;BME280;43755;49.736;8.734;2023-12-20T02:28:39;97785.47;;;4.63;100.00
11448;BME280;43755;49.736;8.734;2023-12-20T02:30:41;97794.47;;;4.51;100.00
11448;BME280;43755;49.736;8.734;2023-12-20T02:32:42;97807.31;;;4.62;100.00
11448;BME280;43755;49.736;8.734;2023-12-20T02:34:44;97801.16;;;4.64;100.00
11448;BME280;43755;49.736;8.734;2023-12-20T02:36:45;97795.94;;;4.63;100.00
11448;BME280;43755;49.736;8.734;2023-12-20T02:38:48;97794.09;;;4.66;100.00
11448;BME280;43755;49.736;8.734;2023-12-20T02:40:50;97793.16;;;4.70;100.00
11448;BME280;43755;49.736;8.734;2023-12-20T02:42:52;97782.56;;;4.75;100.00
11448;BME280;43755;49.736;8.734;2023-12-20T02:44:53;97784.56;;;4.64;100.00
11448;BME280;43755;49.736;8.734;2023-12-20T02:46:55;97783.63;;;4.66;100.00
11448;BME280;43755;49.736;8.734;2023-12-20T02:48:56;97791.44;;;4.69;100.00
11448;BME280;43755;49.736;8.734;2023-12-20T02:50:57;97792.50;;;4.61;100.00
11448;BME280;43755;49.736;8.734;2023-12-20T02:52:59;97800.28;;;4.65;100.00
11448;BME280;43755;49.736;8.734;2023-12-20T02:55:02;97792.34;;;4.67;100.00
11448;BME280;43755;49.736;8.734;2023-12-20T02:57:03;97785.44;;;4.64;100.00
11448;BME280;43755;49.736;8.734;2023-12-20T02:59:04;97767.03;;;4.67;100.00
11448;BME280;43755;49.736;8.734;2023-12-20T03:01:05;97767.13;;;4.63;100.00
11448;BME280;43755;49.736;8.734;2023-12-20T03:03:07;97775.81;;;4.65;100.00
11448;BME280;43755;49.736;8.734;2023-12-20T03:05:08;97793.34;;;4.61;100.00
11448;BME280;43755;49.736;8.734;2023-12-20T03:07:08;97790.72;;;4.61;100.00
11448;BME280;43755;49.736;8.734;2023-12-20T03:09:12;97797.72;;;4.61;100.00
11448;BME280;43755;49.736;8.734;2023-12-20T03:11:14;97795.13;;;4.61;100.00
11448;BME280;43755;49.736;8.734;2023-12-20T03:13:15;97794.31;;;4.59;100.00
11448;BME280;43755;49.736;8.734;2023-12-20T03:15:16;97790.06;;;4.53;100.00
11448;BME280;43755;49.736;8.734;2023-12-20T03:17:18;97792.69;;;4.53;100.00
11448;BME280;43755;49.736;8.734;2023-12-20T03:19:21;97785.59;;;4.57;100.00
11448;BME280;43755;49.736;8.734;2023-12-20T03:21:22;97793.31;;;4.64;100.00
11448;BME280;43755;49.736;8.734;2023-12-20T03:23:23;97799.53;;;4.59;100.00
11448;BME280;43755;49.736;8.734;2023-12-20T03:25:24;97801.09;;;4.66;100.00
11448;BME280;43755;49.736;8.734;2023-12-20T03:27:27;97800.41;;;4.59;100.00
11448;BME280;43755;49.736;8.734;2023-12-20T03:29:27;97805.56;;;4.62;100.00
11448;BME280;43755;49.736;8.734;2023-12-20T03:31:29;97810.03;;;4.59;100.00
11448;BME280;43755;49.736;8.734;2023-12-20T03:33:29;97800.44;;;4.58;100.00
11448;BME280;43755;49.736;8.734;2023-12-20T03:35:31;97811.88;;;4.53;100.00
11448;BME280;43755;49.736;8.734;2023-12-20T03:37:32;97809.88;;;4.65;100.00
11448;BME280;43755;49.736;8.734;2023-12-20T03:39:33;97803.16;;;4.53;100.00
11448;BME280;43755;49.736;8.734;2023-12-20T03:41:35;97807.63;;;4.48;100.00
11448;BME280;43755;49.736;8.734;2023-12-20T03:43:37;97814.50;;;4.53;100.00
11448;BME280;43755;49.736;8.734;2023-12-20T03:45:39;97812.66;;;4.59;100.00
11448;BME280;43755;49.736;8.734;2023-12-20T03:47:40;97816.06;;;4.61;100.00
11448;BME280;43755;49.736;8.734;2023-12-20T03:49:42;97804.78;;;4.59;100.00
11448;BME280;43755;49.736;8.734;2023-12-20T03:51:43;97814.44;;;4.57;100.00
11448;BME280;43755;49.736;8.734;2023-12-20T03:53:44;97817.03;;;4.57;100.00
11448;BME280;43755;49.736;8.734;2023-12-20T03:55:45;97809.06;;;4.61;100.00
11448;BME280;43755;49.736;8.734;2023-12-20T03:57:46;97812.44;;;4.66;100.00
11448;BME280;43755;49.736;8.734;2023-12-20T03:59:49;97815.13;;;4.65;100.00
11448;BME280;43755;49.736;8.734;2023-12-20T04:01:51;97803.66;;;4.70;100.00
11448;BME280;43755;49.736;8.734;2023-12-20T04:03:52;97804.28;;;4.80;100.00
11448;BME280;43755;49.736;8.734;2023-12-20T04:05:53;97809.50;;;4.81;100.00
11448;BME280;43755;49.736;8.734;2023-12-20T04:07:55;97809.75;;;4.71;100.00
11448;BME280;43755;49.736;8.734;2023-12-20T04:09:56;97807.75;;;4.82;100.00
11448;BME280;43755;49.736;8.734;2023-12-20T04:11:58;97803.25;;;4.87;100.00
11448;BME280;43755;49.736;8.734;2023-12-20T04:13:59;97816.41;;;4.84;100.00
11448;BME280;43755;49.736;8.734;2023-12-20T04:16:02;97812.94;;;4.83;100.00
11448;BME280;43755;49.736;8.734;2023-12-20T04:18:03;97825.41;;;4.72;100.00
11448;BME280;43755;49.736;8.734;2023-12-20T04:20:05;97817.38;;;4.81;100.00
11448;BME280;43755;49.736;8.734;2023-12-20T04:22:06;97810.38;;;4.82;100.00
11448;BME280;43755;49.736;8.734;2023-12-20T04:24:07;97812.03;;;4.84;100.00
11448;BME280;43755;49.736;8.734;2023-12-20T04:26:09;97812.16;;;4.80;100.00
11448;BME280;43755;49.736;8.734;2023-12-20T04:28:10;97818.41;;;4.74;100.00
11448;BME280;43755;49.736;8.734;2023-12-20T04:30:13;97818.38;;;4.76;100.00
11448;BME280;43755;49.736;8.734;2023-12-20T04:32:16;97821.91;;;4.73;100.00
11448;BME280;43755;49.736;8.734;2023-12-20T04:34:17;97821.72;;;4.82;100.00
11448;BME280;43755;49.736;8.734;2023-12-20T04:36:19;97824.50;;;4.75;100.00
11448;BME280;43755;49.736;8.734;2023-12-20T04:38:20;97820.09;;;4.77;100.00
11448;BME280;43755;49.736;8.734;2023-12-20T04:40:21;97814.63;;;4.86;100.00
11448;BME280;43755;49.736;8.734;2023-12-20T04:42:23;97817.16;;;4.89;100.00
11448;BME280;43755;49.736;8.734;2023-12-20T04:44:24;97825.13;;;4.86;100.00
11448;BME280;43755;49.736;8.734;2023-12-20T04:46:26;97828.66;;;4.83;100.00
11448;BME280;43755;49.736;8.734;2023-12-20T04:48:29;97829.56;;;4.82;100.00
11448;BME280;43755;49.736;8.734;2023-12-20T04:50:30;97834.69;;;4.88;100.00
11448;BME280;43755;49.736;8.734;2023-12-20T04:52:32;97838.38;;;4.78;100.00
11448;BME280;43755;49.736;8.734;2023-12-20T04:54:33;97828.84;;;4.76;100.00
11448;BME280;43755;49.736;8.734;2023-12-20T04:56:34;97838.91;;;4.94;100.00
11448;BME280;43755;49.736;8.734;2023-12-20T04:58:35;97863.69;;;4.81;100.00
11448;BME280;43755;49.736;8.734;2023-12-20T05:00:36;97858.28;;;4.88;100.00
11448;BME280;43755;49.736;8.734;2023-12-20T05:02:38;97856.66;;;4.83;100.00
11448;BME280;43755;49.736;8.734;2023-12-20T05:04:41;97859.22;;;4.84;100.00
11448;BME280;43755;49.736;8.734;2023-12-20T05:06:42;97859.94;;;4.91;100.00
11448;BME280;43755;49.736;8.734;2023-12-20T05:08:44;97861.16;;;4.76;100.00
11448;BME280;43755;49.736;8.734;2023-12-20T05:10:45;97855.69;;;4.85;100.00
11448;BME280;43755;49.736;8.734;2023-12-20T05:12:46;97872.38;;;4.83;100.00
11448;BME280;43755;49.736;8.734;2023-12-20T05:14:48;97863.66;;;4.82;100.00
11448;BME280;43755;49.736;8.734;2023-12-20T05:16:48;97869.69;;;4.84;100.00
11448;BME280;43755;49.736;8.734;2023-12-20T05:18:49;97876.69;;;4.84;100.00
11448;BME280;43755;49.736;8.734;2023-12-20T05:20:52;97882.88;;;4.81;100.00
11448;BME280;43755;49.736;8.734;2023-12-20T05:22:53;97880.91;;;4.91;100.00
11448;BME280;43755;49.736;8.734;2023-12-20T05:24:55;97868.66;;;4.93;100.00
11448;BME280;43755;49.736;8.734;2023-12-20T05:26:55;97868.75;;;4.88;100.00
11448;BME280;43755;49.736;8.734;2023-12-20T05:28:56;97875.56;;;4.95;100.00
11448;BME280;43755;49.736;8.734;2023-12-20T05:30:58;97878.97;;;5.01;100.00
11448;BME280;43755;49.736;8.734;2023-12-20T05:32:59;97872.88;;;5.00;100.00
11448;BME280;43755;49.736;8.734;2023-12-20T05:35:01;97878.03;;;5.02;100.00
11448;BME280;43755;49.736;8.734;2023-12-20T05:37:04;97883.88;;;5.14;100.00
11448;BME280;43755;49.736;8.734;2023-12-20T05:39:06;97890.81;;;5.17;100.00
11448;BME280;43755;49.736;8.734;2023-12-20T05:41:08;97892.44;;;5.22;100.00
11448;BME280;43755;49.736;8.734;2023-12-20T05:43:09;97897.66;;;5.24;100.00
11448;BME280;43755;49.736;8.734;2023-12-20T05:45:11;97902.81;;;5.27;100.00
11448;BME280;43755;49.736;8.734;2023-12-20T05:47:12;97909.19;;;5.17;100.00
11448;BME280;43755;49.736;8.734;2023-12-20T05:49:14;97908.19;;;5.22;100.00
11448;BME280;43755;49.736;8.734;2023-12-20T05:51:18;97919.56;;;5.21;100.00
11448;BME280;43755;49.736;8.734;2023-12-20T05:53:19;97927.41;;;5.23;100.00
11448;BME280;43755;49.736;8.734;2023-12-20T05:55:21;97924.09;;;5.13;100.00
11448;BME280;43755;49.736;8.734;2023-12-20T05:57:22;97931.94;;;5.15;100.00
11448;BME280;43755;49.736;8.734;2023-12-20T05:59:23;97936.44;;;5.10;100.00
11448;BME280;43755;49.736;8.734;2023-12-20T06:01:24;97942.59;;;5.07;100.00
11448;BME280;43755;49.736;8.734;2023-12-20T06:03:26;97953.91;;;5.09;100.00
11448;BME280;43755;49.736;8.734;2023-12-20T06:05:27;97945.44;;;4.97;100.00
11448;BME280;43755;49.736;8.734;2023-12-20T06:07:29;97944.31;;;5.08;100.00
11448;BME280;43755;49.736;8.734;2023-12-20T06:09:31;97953.56;;;4.86;100.00
11448;BME280;43755;49.736;8.734;2023-12-20T06:11:33;97954.53;;;4.80;100.00
11448;BME280;43755;49.736;8.734;2023-12-20T06:13:34;97955.56;;;4.73;100.00
11448;BME280;43755;49.736;8.734;2023-12-20T06:15:35;97950.28;;;4.76;100.00
11448;BME280;43755;49.736;8.734;2023-12-20T06:17:37;97944.44;;;4.62;100.00
11448;BME280;43755;49.736;8.734;2023-12-20T06:19:38;97947.06;;;4.61;100.00
11448;BME280;43755;49.736;8.734;2023-12-20T06:21:40;97953.03;;;4.69;100.00
11448;BME280;43755;49.736;8.734;2023-12-20T06:23:41;97952.03;;;4.76;100.00
11448;BME280;43755;49.736;8.734;2023-12-20T06:25:44;97952.78;;;4.81;100.00
11448;BME280;43755;49.736;8.734;2023-12-20T06:27:45;97959.00;;;4.77;100.00
11448;BME280;43755;49.736;8.734;2023-12-20T06:29:47;97957.00;;;4.88;100.00
11448;BME280;43755;49.736;8.734;2023-12-20T06:31:48;97948.28;;;4.87;100.00
11448;BME280;43755;49.736;8.734;2023-12-20T06:33:49;97940.44;;;4.86;100.00
11448;BME280;43755;49.736;8.734;2023-12-20T06:35:57;97951.66;;;4.92;100.00
11448;BME280;43755;49.736;8.734;2023-12-20T06:37:58;97954.44;;;4.85;100.00
11448;BME280;43755;49.736;8.734;2023-12-20T06:40:01;97960.63;;;4.82;100.00
11448;BME280;43755;49.736;8.734;2023-12-20T06:42:04;97963.88;;;4.93;100.00
11448;BME280;43755;49.736;8.734;2023-12-20T06:44:05;97950.03;;;4.87;100.00
11448;BME280;43755;49.736;8.734;2023-12-20T06:46:07;97951.97;;;4.77;100.00
11448;BME280;43755;49.736;8.734;2023-12-20T06:48:08;97951.38;;;4.65;100.00
11448;BME280;43755;49.736;8.734;2023-12-20T06:50:12;97947.28;;;4.51;100.00
11448;BME280;43755;49.736;8.734;2023-12-20T06:52:13;97953.41;;;4.50;100.00
11448;BME280;43755;49.736;8.734;2023-12-20T06:54:14;97966.50;;;4.50;100.00
11448;BME280;43755;49.736;8.734;2023-12-20T06:56:15;97957.22;;;4.34;100.00
11448;BME280;43755;49.736;8.734;2023-12-20T06:58:18;97959.94;;;4.28;100.00
11448;BME280;43755;49.736;8.734;2023-12-20T07:00:20;97955.81;;;4.15;100.00
11448;BME280;43755;49.736;8.734;2023-12-20T07:02:21;97949.63;;;4.19;100.00
11448;BME280;43755;49.736;8.734;2023-12-20T07:04:23;97955.88;;;4.12;100.00
11448;BME280;43755;49.736;8.734;2023-12-20T07:06:24;97961.28;;;4.01;100.00
11448;BME280;43755;49.736;8.734;2023-12-20T07:08:26;97971.81;;;4.00;100.00
11448;BME280;43755;49.736;8.734;2023-12-20T07:10:28;97971.94;;;3.92;100.00
11448;BME280;43755;49.736;8.734;2023-12-20T07:12:29;97966.69;;;3.92;100.00
11448;BME280;43755;49.736;8.734;2023-12-20T07:14:31;97955.28;;;3.95;100.00
11448;BME280;43755;49.736;8.734;2023-12-20T07:16:32;97963.22;;;3.92;100.00
11448;BME280;43755;49.736;8.734;2023-12-20T07:18:35;97961.47;;;3.91;100.00
11448;BME280;43755;49.736;8.734;2023-12-20T07:20:35;97969.19;;;4.00;100.00
11448;BME280;43755;49.736;8.734;2023-12-20T07:22:37;97966.59;;;3.98;100.00
11448;BME280;43755;49.736;8.734;2023-12-20T07:24:37;97970.19;;;3.91;100.00
11448;BME280;43755;49.736;8.734;2023-12-20T07:26:39;97970.09;;;3.96;100.00
11448;BME280;43755;49.736;8.734;2023-12-20T07:28:40;97971.00;;;3.95;100.00
11448;BME280;43755;49.736;8.734;2023-12-20T07:30:43;97972.78;;;3.94;100.00
11448;BME280;43755;49.736;8.734;2023-12-20T07:32:44;97970.97;;;3.98;100.00
11448;BME280;43755;49.736;8.734;2023-12-20T07:34:47;97976.22;;;3.96;100.00
11448;BME280;43755;49.736;8.734;2023-12-20T07:36:49;97983.09;;;4.02;100.00
11448;BME280;43755;49.736;8.734;2023-12-20T07:38:50;97983.97;;;4.01;100.00
11448;BME280;43755;49.736;8.734;2023-12-20T07:40:51;97984.06;;;3.95;100.00
11448;BME280;43755;49.736;8.734;2023-12-20T07:42:53;97982.41;;;3.91;100.00
11448;BME280;43755;49.736;8.734;2023-12-20T07:44:54;97977.94;;;3.97;100.00
11448;BME280;43755;49.736;8.734;2023-12-20T07:46:57;97978.88;;;3.93;100.00
11448;BME280;43755;49.736;8.734;2023-12-20T07:48:59;97983.09;;;4.02;100.00
11448;BME280;43755;49.736;8.734;2023-12-20T07:51:00;97984.81;;;4.03;100.00
11448;BME280;43755;49.736;8.734;2023-12-20T07:53:02;97996.13;;;4.05;100.00
11448;BME280;43755;49.736;8.734;2023-12-20T07:55:04;97998.75;;;4.05;100.00
11448;BME280;43755;49.736;8.734;2023-12-20T07:57:05;97993.47;;;4.08;100.00
11448;BME280;43755;49.736;8.734;2023-12-20T07:59:06;97997.78;;;4.12;100.00
11448;BME280;43755;49.736;8.734;2023-12-20T08:01:08;97990.84;;;4.06;100.00
11448;BME280;43755;49.736;8.734;2023-12-20T08:03:11;97996.81;;;4.16;100.00
11448;BME280;43755;49.736;8.734;2023-12-20T08:05:12;97995.88;;;4.20;100.00
11448;BME280;43755;49.736;8.734;2023-12-20T08:07:14;97995.75;;;4.26;100.00
11448;BME280;43755;49.736;8.734;2023-12-20T08:09:16;97989.72;;;4.23;100.00
11448;BME280;43755;49.736;8.734;2023-12-20T08:11:17;97999.25;;;4.27;100.00
11448;BME280;43755;49.736;8.734;2023-12-20T08:13:18;97995.72;;;4.29;100.00
11448;BME280;43755;49.736;8.734;2023-12-20T08:15:19;97990.41;;;4.32;100.00
11448;BME280;43755;49.736;8.734;2023-12-20T08:17:20;97999.97;;;4.35;100.00
11448;BME280;43755;49.736;8.734;2023-12-20T08:19:24;97999.13;;;4.34;100.00
11448;BME280;43755;49.736;8.734;2023-12-20T08:21:26;98000.00;;;4.33;100.00
11448;BME280;43755;49.736;8.734;2023-12-20T08:23:27;98003.47;;;4.35;100.00
11448;BME280;43755;49.736;8.734;2023-12-20T08:25:29;98007.84;;;4.35;100.00
11448;BME280;43755;49.736;8.734;2023-12-20T08:27:30;98005.16;;;4.38;100.00
11448;BME280;43755;49.736;8.734;2023-12-20T08:29:32;98004.44;;;4.30;100.00
11448;BME280;43755;49.736;8.734;2023-12-20T08:31:33;98008.63;;;4.40;100.00
11448;BME280;43755;49.736;8.734;2023-12-20T08:33:35;98019.88;;;4.43;100.00
11448;BME280;43755;49.736;8.734;2023-12-20T08:35:37;98017.34;;;4.40;100.00
11448;BME280;43755;49.736;8.734;2023-12-20T08:37:39;98025.00;;;4.49;100.00
11448;BME280;43755;49.736;8.734;2023-12-20T08:39:40;98019.78;;;4.48;100.00
11448;BME280;43755;49.736;8.734;2023-12-20T08:41:43;98013.47;;;4.60;100.00
11448;BME280;43755;49.736;8.734;2023-12-20T08:43:45;98023.06;;;4.61;100.00
11448;BME280;43755;49.736;8.734;2023-12-20T08:45:46;98029.16;;;4.61;100.00
11448;BME280;43755;49.736;8.734;2023-12-20T08:47:47;98024.88;;;4.57;100.00
11448;BME280;43755;49.736;8.734;2023-12-20T08:49:49;98024.00;;;4.58;100.00
11448;BME280;43755;49.736;8.734;2023-12-20T08:51:52;98011.09;;;4.47;100.00
11448;BME280;43755;49.736;8.734;2023-12-20T08:53:53;98018.13;;;4.44;100.00
11448;BME280;43755;49.736;8.734;2023-12-20T08:55:54;98025.88;;;4.51;100.00
11448;BME280;43755;49.736;8.734;2023-12-20T08:57:58;98020.72;;;4.47;100.00
11448;BME280;43755;49.736;8.734;2023-12-20T08:59:59;98026.94;;;4.41;100.00
11448;BME280;43755;49.736;8.734;2023-12-20T09:02:01;98027.66;;;4.48;100.00
11448;BME280;43755;49.736;8.734;2023-12-20T09:04:02;98029.38;;;4.49;100.00
11448;BME280;43755;49.736;8.734;2023-12-20T09:06:04;98032.88;;;4.49;100.00
11448;BME280;43755;49.736;8.734;2023-12-20T09:08:07;98040.72;;;4.49;100.00
11448;BME280;43755;49.736;8.734;2023-12-20T09:10:10;98033.75;;;4.48;100.00
11448;BME280;43755;49.736;8.734;2023-12-20T09:12:11;98027.47;;;4.59;100.00
11448;BME280;43755;49.736;8.734;2023-12-20T09:14:12;98030.97;;;4.59;100.00
11448;BME280;43755;49.736;8.734;2023-12-20T09:16:13;98022.25;;;4.59;100.00
11448;BME280;43755;49.736;8.734;2023-12-20T09:18:16;98027.53;;;4.56;100.00
11448;BME280;43755;49.736;8.734;2023-12-20T09:20:17;98028.34;;;4.59;100.00
11448;BME280;43755;49.736;8.734;2023-12-20T09:22:18;98031.84;;;4.58;100.00
11448;BME280;43755;49.736;8.734;2023-12-20T09:24:21;98036.34;;;4.51;100.00
11448;BME280;43755;49.736;8.734;2023-12-20T09:26:22;98023.28;;;4.48;100.00
11448;BME280;43755;49.736;8.734;2023-12-20T09:28:24;98039.75;;;4.55;100.00
11448;BME280;43755;49.736;8.734;2023-12-20T09:30:24;98035.34;;;4.59;100.00
11448;BME280;43755;49.736;8.734;2023-12-20T09:32:26;98023.28;;;4.48;100.00
11448;BME280;43755;49.736;8.734;2023-12-20T09:34:27;98034.69;;;4.46;100.00
11448;BME280;43755;49.736;8.734;2023-12-20T09:36:29;98031.09;;;4.53;100.00
11448;BME280;43755;49.736;8.734;2023-12-20T09:38:34;98039.63;;;4.63;100.00
11448;BME280;43755;49.736;8.734;2023-12-20T09:40:41;98033.53;;;4.62;100.00
11448;BME280;43755;49.736;8.734;2023-12-20T09:42:47;98031.66;;;4.69;100.00
11448;BME280;43755;49.736;8.734;2023-12-20T09:44:50;98023.94;;;4.60;100.00
11448;BME280;43755;49.736;8.734;2023-12-20T09:46:52;98031.56;;;4.72;100.00
11448;BME280;43755;49.736;8.734;2023-12-20T09:48:56;98020.38;;;4.65;100.00
11448;BME280;43755;49.736;8.734;2023-12-20T09:50:58;98036.75;;;4.76;100.00
11448;BME280;43755;49.736;8.734;2023-12-20T09:53:01;98038.38;;;4.82;100.00
11448;BME280;43755;49.736;8.734;2023-12-20T09:55:05;98038.44;;;4.79;100.00
11448;BME280;43755;49.736;8.734;2023-12-20T09:57:09;98037.44;;;4.84;100.00
11448;BME280;43755;49.736;8.734;2023-12-20T09:59:10;98035.03;;;4.75;100.00
11448;BME280;43755;49.736;8.734;2023-12-20T10:01:12;98041.03;;;4.80;100.00
11448;BME280;43755;49.736;8.734;2023-12-20T10:03:13;98037.34;;;4.90;100.00
11448;BME280;43755;49.736;8.734;2023-12-20T10:05:16;98048.91;;;4.80;100.00
11448;BME280;43755;49.736;8.734;2023-12-20T10:07:19;98049.63;;;4.88;100.00
11448;BME280;43755;49.736;8.734;2023-12-20T10:09:20;98049.63;;;4.88;100.00
11448;BME280;43755;49.736;8.734;2023-12-20T10:11:21;98052.38;;;4.81;100.00
11448;BME280;43755;49.736;8.734;2023-12-20T10:13:24;98049.69;;;4.84;100.00
11448;BME280;43755;49.736;8.734;2023-12-20T10:15:26;98041.81;;;4.84;100.00
11448;BME280;43755;49.736;8.734;2023-12-20T10:17:27;98030.28;;;4.94;100.00
11448;BME280;43755;49.736;8.734;2023-12-20T10:19:29;98025.94;;;4.93;100.00
11448;BME280;43755;49.736;8.734;2023-12-20T10:21:30;98019.81;;;4.92;100.00
11448;BME280;43755;49.736;8.734;2023-12-20T10:23:32;98029.19;;;5.06;100.00
11448;BME280;43755;49.736;8.734;2023-12-20T10:25:33;98026.44;;;5.12;100.00
11448;BME280;43755;49.736;8.734;2023-12-20T10:27:35;98023.88;;;5.07;100.00
11448;BME280;43755;49.736;8.734;2023-12-20T10:29:38;98030.81;;;5.11;100.00
11448;BME280;43755;49.736;8.734;2023-12-20T10:31:39;98022.00;;;5.14;100.00
11448;BME280;43755;49.736;8.734;2023-12-20T10:33:40;98016.84;;;5.11;100.00
11448;BME280;43755;49.736;8.734;2023-12-20T10:35:41;98017.63;;;5.14;100.00
11448;BME280;43755;49.736;8.734;2023-12-20T10:37:43;98010.69;;;5.12;100.00
11448;BME280;43755;49.736;8.734;2023-12-20T10:39:44;98013.50;;;5.03;100.00
11448;BME280;43755;49.736;8.734;2023-12-20T10:41:45;98015.72;;;5.22;100.00
11448;BME280;43755;49.736;8.734;2023-12-20T10:43:47;98019.22;;;5.21;100.00